createdAt,value
2019-04-21T00:01:00.288Z,17.6
2019-04-21T00:01:58.154Z,17
2019-04-21T00:02:59.503Z,15.5
2019-04-21T00:04:08.123Z,16.799999
2019-04-21T00:05:19.808Z,16.4
2019-04-21T00:06:15.430Z,15
2019-04-21T00:07:30.922Z,17.5
2019-04-21T00:08:24.532Z,15.5
2019-04-21T00:09:24.014Z,16.700001
2019-04-21T00:10:18.202Z,16.1
2019-04-21T00:12:17.775Z,19.5
2019-04-21T00:13:11.830Z,17.299999
2019-04-21T00:14:08.788Z,16.700001
2019-04-21T00:15:09.554Z,15.3
2019-04-21T00:16:02.825Z,17.200001
2019-04-21T00:17:05.786Z,15.4
2019-04-21T00:18:02.367Z,15.8
2019-04-21T00:19:07.061Z,15.3
2019-04-21T00:20:08.939Z,15.8
2019-04-21T00:21:10.892Z,18.799999
2019-04-21T00:22:08.429Z,17.299999
2019-04-21T00:23:16.543Z,16.799999
2019-04-21T00:24:11.953Z,14.4
2019-04-21T00:25:13.801Z,16.299999
2019-04-21T00:26:10.825Z,16.9
2019-04-21T00:27:15.394Z,17.799999
2019-04-21T00:28:23.724Z,18.6
2019-04-21T00:29:25.511Z,16
2019-04-21T00:30:21.203Z,16.5
2019-04-21T00:31:14.913Z,16.6
2019-04-21T00:32:13.439Z,20.1
2019-04-21T00:33:06.602Z,18.5
2019-04-21T00:34:00.425Z,15.5
2019-04-21T00:35:06.313Z,16.799999
2019-04-21T00:36:06.960Z,19.799999
2019-04-21T00:37:09.051Z,17
2019-04-21T00:38:16.794Z,18
2019-04-21T00:39:28.478Z,15.7
2019-04-21T00:40:21.878Z,15.6
2019-04-21T00:41:18.608Z,16.700001
2019-04-21T00:42:17.980Z,18.6
2019-04-21T00:43:19.227Z,18.799999
2019-04-21T00:44:11.373Z,18.5
2019-04-21T00:45:14.928Z,17
2019-04-21T00:46:08.341Z,15.3
2019-04-21T00:47:24.093Z,17.6
2019-04-21T00:48:22.807Z,16.200001
2019-04-21T00:49:15.081Z,19.200001
2019-04-21T00:50:17.548Z,19.1
2019-04-21T00:51:33.016Z,17.200001
2019-04-21T00:52:28.001Z,15.9
2019-04-21T00:53:28.539Z,18.299999
2019-04-21T00:54:24.395Z,17.299999
2019-04-21T00:55:26.520Z,16.9
2019-04-21T00:56:21.086Z,19.200001
2019-04-21T00:57:23.983Z,17.6
2019-04-21T00:58:27.885Z,17.5
2019-04-21T00:59:25.462Z,18.4
2019-04-21T01:00:21.919Z,20.1
2019-04-21T01:01:19.643Z,20.200001
2019-04-21T01:02:22.402Z,19.4
2019-04-21T01:03:25.679Z,17.700001
2019-04-21T01:04:23.310Z,16.799999
2019-04-21T01:05:20.761Z,17.799999
2019-04-21T01:06:22.205Z,16.299999
2019-04-21T01:07:19.170Z,16.4
2019-04-21T01:08:19.715Z,16.1
2019-04-21T01:09:19.292Z,19.6
2019-04-21T01:10:14.320Z,17.299999
2019-04-21T01:11:23.507Z,19.9
2019-04-21T01:12:18.886Z,17.799999
2019-04-21T01:13:26.026Z,17.4
2019-04-21T01:14:29.623Z,17.5
2019-04-21T01:15:30.428Z,17.200001
2019-04-21T01:16:26.862Z,20.700001
2019-04-21T01:17:21.537Z,16.6
2019-04-21T01:18:20.336Z,18.700001
2019-04-21T01:19:20.772Z,17.299999
2019-04-21T01:20:15.682Z,20.5
2019-04-21T01:21:13.341Z,18.9
2019-04-21T01:22:01.901Z,18.4
2019-04-21T01:23:02.181Z,19.6
2019-04-21T01:24:11.334Z,17.299999
2019-04-21T01:25:11.700Z,18.4
2019-04-21T01:26:17.627Z,19.299999
2019-04-21T01:27:12.005Z,19.799999
2019-04-21T01:28:18.494Z,17.700001
2019-04-21T01:29:18.984Z,18
2019-04-21T01:30:22.026Z,19.1
2019-04-21T01:31:16.868Z,18.4
2019-04-21T01:32:23.460Z,18
2019-04-21T01:33:25.826Z,18.1
2019-04-21T01:34:20.330Z,21.9
2019-04-21T01:35:20.557Z,21.700001
2019-04-21T01:36:17.610Z,22.799999
2019-04-21T01:37:18.282Z,20.5
2019-04-21T01:38:28.692Z,18.5
2019-04-21T01:39:26.922Z,23.1
2019-04-21T01:40:28.640Z,19.299999
2019-04-21T01:41:25.298Z,19
2019-04-21T01:42:20.870Z,17.700001
2019-04-21T01:43:23.161Z,20.5
2019-04-21T01:44:29.448Z,19
2019-04-21T01:45:21.046Z,20.200001
2019-04-21T01:46:19.034Z,18.799999
2019-04-21T01:47:15.698Z,17.1
2019-04-21T01:48:19.386Z,22.700001
2019-04-21T01:49:15.693Z,21.6
2019-04-21T01:50:11.683Z,19
2019-04-21T01:51:17.946Z,19
2019-04-21T01:52:29.800Z,20.9
2019-04-21T01:53:23.752Z,19.299999
2019-04-21T01:54:21.590Z,18
2019-04-21T01:55:24.784Z,17
2019-04-21T01:56:23.655Z,19.700001
2019-04-21T01:57:22.226Z,20.299999
2019-04-21T01:58:18.103Z,20
2019-04-21T01:59:10.704Z,21
2019-04-21T02:00:12.923Z,18.9
2019-04-21T02:01:23.836Z,18.4
2019-04-21T02:02:22.789Z,19.4
2019-04-21T02:03:40.485Z,19.200001
2019-04-21T02:04:29.072Z,18.700001
2019-04-21T02:05:30.967Z,20.1
2019-04-21T02:06:26.925Z,20.700001
2019-04-21T02:07:26.568Z,19.9
2019-04-21T02:08:21.349Z,20.799999
2019-04-21T02:09:18.731Z,20.799999
2019-04-21T02:10:26.479Z,21
2019-04-21T02:11:22.915Z,17.9
2019-04-21T02:12:25.104Z,20
2019-04-21T02:13:21.231Z,21.700001
2019-04-21T02:14:30.914Z,21.1
2019-04-21T02:15:29.276Z,18.9
2019-04-21T02:16:22.583Z,20.299999
2019-04-21T02:17:21.585Z,21
2019-04-21T02:18:21.874Z,20.9
2019-04-21T02:19:16.404Z,22.4
2019-04-21T02:20:17.800Z,20.299999
2019-04-21T02:21:17.702Z,20.5
2019-04-21T02:22:27.077Z,20.9
2019-04-21T02:23:34.056Z,20.9
2019-04-21T02:24:28.477Z,19.9
2019-04-21T02:25:25.663Z,21.9
2019-04-21T02:26:26.465Z,18
2019-04-21T02:27:23.258Z,19.4
2019-04-21T02:28:34.971Z,18.799999
2019-04-21T02:29:26.520Z,20.299999
2019-04-21T02:30:35.196Z,17.6
2019-04-21T02:32:42.881Z,21.299999
2019-04-21T02:33:45.502Z,20.799999
2019-04-21T02:34:40.066Z,21.5
2019-04-21T02:35:38.087Z,18.9
2019-04-21T02:37:44.135Z,21.299999
2019-04-21T02:38:36.095Z,20.5
2019-04-21T02:40:38.275Z,21.299999
2019-04-21T02:41:39.588Z,20.6
2019-04-21T02:42:37.434Z,22.1
2019-04-21T02:43:32.674Z,21.1
2019-04-21T02:48:37.980Z,22.1
2019-04-21T02:49:44.716Z,20
2019-04-21T02:54:47.321Z,23.1
2019-04-21T02:55:36.079Z,22.700001
2019-04-21T02:58:41.386Z,24
2019-04-21T02:59:41.576Z,23.9
2019-04-21T03:00:34.323Z,22.799999
2019-04-21T03:02:40.476Z,24.299999
2019-04-21T03:04:41.961Z,25.6
2019-04-21T03:05:50.303Z,23.9
2019-04-21T03:06:39.166Z,23.700001
2019-04-21T03:07:29.818Z,24.1
2019-04-21T03:08:42.449Z,21.299999
2019-04-21T03:10:43.034Z,24
2019-04-21T03:11:34.176Z,23.299999
2019-04-21T03:12:28.436Z,22.5
2019-04-21T03:13:56.519Z,22.6
2019-04-21T03:14:45.893Z,24.4
2019-04-21T03:15:37.094Z,25.700001
2019-04-21T03:17:42.453Z,22.299999
2019-04-21T03:18:39.348Z,23.6
2019-04-21T03:19:44.654Z,24.6
2019-04-21T03:21:36.459Z,25.6
2019-04-21T03:22:29.688Z,25.200001
2019-04-21T03:23:53.389Z,26.200001
2019-04-21T03:24:53.309Z,26.6
2019-04-21T03:26:58.816Z,25.9
2019-04-21T03:28:35.188Z,24.5
2019-04-21T03:31:05.518Z,25.4
2019-04-21T03:32:03.266Z,25.4
2019-04-21T03:38:45.048Z,26.200001
2019-04-21T03:40:31.974Z,25.700001
2019-04-21T03:41:47.504Z,25.1
2019-04-21T03:42:38.318Z,25.5
2019-04-21T03:43:49.874Z,25.5
2019-04-21T03:44:36.849Z,28.1
2019-04-21T03:46:40.851Z,27.700001
2019-04-21T03:47:34.349Z,25.700001
2019-04-21T03:48:40.390Z,29.5
2019-04-21T03:51:35.541Z,26.700001
2019-04-21T03:53:36.235Z,27
2019-04-21T03:54:41.180Z,28.9
2019-04-21T03:56:58.657Z,27.6
2019-04-21T03:57:55.224Z,27.200001
2019-04-21T03:59:44.878Z,26.299999
2019-04-21T04:00:49.390Z,28.1
2019-04-21T04:01:40.228Z,28.200001
2019-04-21T04:02:41.146Z,25.700001
2019-04-21T04:04:43.858Z,26.4
2019-04-21T04:05:54.837Z,27.1
2019-04-21T04:06:42.420Z,26.299999
2019-04-21T04:07:49.379Z,28.6
2019-04-21T04:10:42.478Z,30.200001
2019-04-21T04:15:55.851Z,29
2019-04-21T04:16:44.847Z,31.1
2019-04-21T04:19:38.817Z,26
2019-04-21T04:20:42.175Z,26.799999
2019-04-21T04:23:00.721Z,28.700001
2019-04-21T04:23:44.830Z,27.9
2019-04-21T04:24:48.861Z,27.200001
2019-04-21T04:25:42.220Z,27.9
2019-04-21T04:26:39.163Z,31.200001
2019-04-21T04:28:45.810Z,30.1
2019-04-21T04:29:37.844Z,27.4
2019-04-21T04:30:51.645Z,29.1
2019-04-21T04:32:56.126Z,28.299999
2019-04-21T04:33:48.106Z,28.4
2019-04-21T04:35:52.066Z,29.6
2019-04-21T04:37:44.209Z,29.4
2019-04-21T04:38:46.518Z,28.799999
2019-04-21T04:40:38.098Z,28.299999
2019-04-21T04:41:52.477Z,29.1
2019-04-21T04:42:45.001Z,28.6
2019-04-21T04:43:44.277Z,28.799999
2019-04-21T04:44:54.012Z,29.1
2019-04-21T04:45:43.804Z,30.700001
2019-04-21T04:46:43.609Z,30.6
2019-04-21T04:47:40.927Z,27.5
2019-04-21T04:48:41.604Z,28.5
2019-04-21T04:49:47.517Z,29
2019-04-21T04:51:55.733Z,32.700001
2019-04-21T04:53:43.750Z,29.5
2019-04-21T04:55:45.380Z,29.6
2019-04-21T04:56:46.928Z,28.6
2019-04-21T04:57:58.888Z,27.299999
2019-04-21T04:58:59.240Z,31
2019-04-21T04:59:47.282Z,28.200001
2019-04-21T05:00:40.368Z,34.900002
2019-04-21T05:01:50.927Z,31.700001
2019-04-21T05:02:39.850Z,29.6
2019-04-21T05:04:54.611Z,29
2019-04-21T05:05:46.578Z,32.799999
2019-04-21T05:06:56.055Z,27.4
2019-04-21T05:11:05.789Z,32.900002
2019-04-21T05:11:55.201Z,27.799999
2019-04-21T05:12:56.455Z,31.700001
2019-04-21T05:13:43.173Z,30.200001
2019-04-21T05:14:45.940Z,30.6
2019-04-21T05:15:41.382Z,33.799999
2019-04-21T05:17:42.741Z,30.700001
2019-04-21T05:18:52.335Z,30.5
2019-04-21T05:20:01.487Z,29.6
2019-04-21T05:20:41.420Z,32.5
2019-04-21T05:21:38.503Z,30.700001
2019-04-21T05:22:47.059Z,31
2019-04-21T05:23:37.480Z,31.799999
2019-04-21T05:24:33.086Z,28.799999
2019-04-21T05:25:33.389Z,28.299999
2019-04-21T05:26:31.052Z,31.6
2019-04-21T05:27:29.208Z,32.200001
2019-04-21T05:28:28.369Z,30.6
2019-04-21T05:29:37.353Z,31.299999
2019-04-21T05:30:40.120Z,29.799999
2019-04-21T05:31:38.110Z,29
2019-04-21T05:32:39.408Z,28.6
2019-04-21T05:33:37.449Z,30.799999
2019-04-21T05:34:35.457Z,35.299999
2019-04-21T05:35:39.016Z,31.4
2019-04-21T05:36:37.567Z,29
2019-04-21T05:37:34.658Z,29.4
2019-04-21T05:38:31.268Z,31.6
2019-04-21T05:39:32.735Z,29.700001
2019-04-21T05:40:31.688Z,32.599998
2019-04-21T05:41:25.383Z,30.299999
2019-04-21T05:42:32.915Z,29.4
2019-04-21T05:43:38.592Z,30.299999
2019-04-21T05:45:40.396Z,30.9
2019-04-21T05:46:38.514Z,32.299999
2019-04-21T05:47:39.450Z,29.200001
2019-04-21T05:48:38.998Z,28.1
2019-04-21T05:49:38.092Z,29.299999
2019-04-21T05:50:31.909Z,32.299999
2019-04-21T05:51:34.978Z,31.6
2019-04-21T05:52:32.764Z,28.9
2019-04-21T05:53:35.558Z,36.299999
2019-04-21T05:54:43.877Z,31.6
2019-04-21T05:55:43.389Z,31.299999
2019-04-21T05:56:40.454Z,29.700001
2019-04-21T05:57:37.889Z,28.9
2019-04-21T05:58:37.608Z,34.299999
2019-04-21T05:59:37.494Z,33.299999
2019-04-21T06:00:59.006Z,31.5
2019-04-21T06:01:46.155Z,32.299999
2019-04-21T06:02:41.721Z,27.6
2019-04-21T06:03:44.062Z,26.5
2019-04-21T06:05:05.207Z,27.9
2019-04-21T06:05:50.880Z,25.799999
2019-04-21T06:06:45.709Z,28.5
2019-04-21T06:07:39.270Z,26.700001
2019-04-21T06:09:50.958Z,28.299999
2019-04-21T06:10:47.155Z,28.1
2019-04-21T06:11:42.073Z,29.6
2019-04-21T06:12:39.983Z,29.4
2019-04-21T06:13:47.968Z,28.299999
2019-04-21T06:14:43.376Z,26.9
2019-04-21T06:15:49.851Z,25.5
2019-04-21T06:17:42.658Z,30.700001
2019-04-21T06:18:46.965Z,25.5
2019-04-21T06:20:40.442Z,26.5
2019-04-21T06:21:38.350Z,26.5
2019-04-21T06:22:46.194Z,27
2019-04-21T06:23:40.030Z,25.6
2019-04-21T06:24:54.090Z,29.1
2019-04-21T06:25:54.340Z,28.200001
2019-04-21T06:26:53.528Z,26.9
2019-04-21T06:27:43.869Z,28.5
2019-04-21T06:28:45.147Z,27.1
2019-04-21T06:29:43.517Z,26
2019-04-21T06:30:48.470Z,27.1
2019-04-21T06:32:11.567Z,26.9
2019-04-21T06:32:51.995Z,25.700001
2019-04-21T06:33:44.268Z,22.799999
2019-04-21T06:34:56.388Z,24.299999
2019-04-21T06:35:58.586Z,26.200001
2019-04-21T06:36:46.827Z,24
2019-04-21T06:38:53.725Z,22.6
2019-04-21T06:40:47.826Z,23.700001
2019-04-21T06:41:37.765Z,23.700001
2019-04-21T06:42:49.897Z,23.700001
2019-04-21T06:44:52.684Z,24.799999
2019-04-21T06:45:52.304Z,23.1
2019-04-21T06:46:44.505Z,23.9
2019-04-21T06:47:49.537Z,24.799999
2019-04-21T06:48:49.197Z,23.5
2019-04-21T06:49:42.591Z,23.799999
2019-04-21T06:50:52.302Z,25.299999
2019-04-21T06:51:42.856Z,23
2019-04-21T06:53:52.079Z,23
2019-04-21T06:54:46.692Z,20.200001
2019-04-21T06:55:43.296Z,22.6
2019-04-21T06:56:44.880Z,22.1
2019-04-21T06:57:42.960Z,21.9
2019-04-21T06:58:42.601Z,17.799999
2019-04-21T06:59:42.930Z,21
2019-04-21T07:01:48.627Z,20.9
2019-04-21T07:03:47.237Z,19.6
2019-04-21T07:03:47.241Z,21.799999
2019-04-21T07:04:49.926Z,16.799999
2019-04-21T07:05:47.179Z,18.700001
2019-04-21T07:06:47.844Z,20
2019-04-21T07:07:54.474Z,19.5
2019-04-21T07:08:52.720Z,19.799999
2019-04-21T07:09:50.944Z,19.799999
2019-04-21T07:10:42.860Z,20.1
2019-04-21T07:11:42.028Z,19.5
2019-04-21T07:12:44.702Z,19.799999
2019-04-21T07:13:43.831Z,18.299999
2019-04-21T07:14:46.788Z,18.9
2019-04-21T07:15:49.772Z,23.5
2019-04-21T07:16:50.732Z,22
2019-04-21T07:17:49.722Z,18
2019-04-21T07:18:49.575Z,20.700001
2019-04-21T07:20:48.891Z,21.700001
2019-04-21T07:22:02.891Z,24.700001
2019-04-21T07:22:47.592Z,19.299999
2019-04-21T07:23:51.659Z,21.299999
2019-04-21T07:24:47.738Z,20
2019-04-21T07:25:50.957Z,19.299999
2019-04-21T07:26:50.581Z,20.4
2019-04-21T07:27:51.836Z,19.5
2019-04-21T07:28:55.807Z,21.4
2019-04-21T07:29:53.257Z,19.5
2019-04-21T07:30:51.334Z,20
2019-04-21T07:32:47.151Z,19.1
2019-04-21T07:33:57.141Z,19.5
2019-04-21T07:34:50.961Z,22.6
2019-04-21T07:35:50.353Z,22.700001
2019-04-21T07:37:53.223Z,18.9
2019-04-21T07:38:49.555Z,22.6
2019-04-21T07:39:49.199Z,22.700001
2019-04-21T07:40:45.324Z,21.4
2019-04-21T07:41:43.612Z,20.5
2019-04-21T07:42:42.511Z,19.299999
2019-04-21T07:43:42.494Z,22.799999
2019-04-21T07:44:45.845Z,24.299999
2019-04-21T07:45:44.309Z,20.9
2019-04-21T07:46:43.935Z,18.5
2019-04-21T07:47:50.350Z,20.200001
2019-04-21T07:48:49.066Z,19.4
2019-04-21T07:49:52.726Z,19.9
2019-04-21T07:50:51.180Z,21.1
2019-04-21T07:51:50.481Z,21.700001
2019-04-21T07:52:53.033Z,19
2019-04-21T07:53:55.162Z,23.299999
2019-04-21T07:54:56.648Z,21.6
2019-04-21T07:55:31.739Z,20.9
2019-04-21T07:56:36.045Z,19.9
2019-04-21T07:57:37.452Z,23.5
2019-04-21T07:58:53.234Z,20.9
2019-04-21T08:01:54.704Z,21
2019-04-21T08:02:53.805Z,22.4
2019-04-21T08:03:51.814Z,19.9
2019-04-21T08:05:52.406Z,20.200001
2019-04-21T08:06:50.610Z,20
2019-04-21T08:07:57.676Z,20
2019-04-21T08:08:52.308Z,22.1
2019-04-21T08:09:50.882Z,22.5
2019-04-21T08:10:50.477Z,23
2019-04-21T08:11:47.436Z,19.1
2019-04-21T08:12:45.741Z,21.700001
2019-04-21T08:13:51.505Z,22.4
2019-04-21T08:14:49.261Z,21.9
2019-04-21T08:15:50.604Z,22.799999
2019-04-21T08:17:53.213Z,21.6
2019-04-21T08:18:51.740Z,20.4
2019-04-21T08:19:48.544Z,20.700001
2019-04-21T08:20:47.632Z,20.700001
2019-04-21T08:21:57.222Z,20.6
2019-04-21T08:22:50.821Z,17.700001
2019-04-21T08:23:46.537Z,21.700001
2019-04-21T08:24:55.990Z,19.700001
2019-04-21T08:25:58.692Z,20.1
2019-04-21T08:26:57.263Z,18.4
2019-04-21T08:27:53.725Z,19.9
2019-04-21T08:28:51.948Z,20.1
2019-04-21T08:29:51.395Z,18.4
2019-04-21T08:30:54.049Z,19.799999
2019-04-21T08:32:25.963Z,21
2019-04-21T08:35:04.407Z,18.799999
2019-04-21T08:36:50.762Z,17.9
2019-04-21T08:37:53.183Z,18.299999
2019-04-21T08:38:53.397Z,18.4
2019-04-21T08:40:01.858Z,18.200001
2019-04-21T08:40:55.679Z,18.4
2019-04-21T08:41:55.763Z,21.299999
2019-04-21T08:42:54.859Z,16.9
2019-04-21T08:43:50.991Z,18
2019-04-21T08:44:52.220Z,19.1
2019-04-21T08:45:52.267Z,19.5
2019-04-21T08:46:58.596Z,17.4
2019-04-21T08:48:55.171Z,19.1
2019-04-21T08:49:53.439Z,17.1
2019-04-21T08:51:03.698Z,17.9
2019-04-21T08:52:00.473Z,18
2019-04-21T08:52:56.091Z,18.700001
2019-04-21T08:54:01.024Z,18.200001
2019-04-21T08:54:55.047Z,19.1
2019-04-21T08:56:03.060Z,18.200001
2019-04-21T08:56:52.391Z,16.9
2019-04-21T08:58:28.640Z,18.799999
2019-04-21T08:58:55.808Z,17.700001
2019-04-21T08:59:58.474Z,17.9
2019-04-21T09:01:00.682Z,19.299999
2019-04-21T09:01:55.091Z,20.299999
2019-04-21T09:02:55.690Z,17.9
2019-04-21T09:03:54.954Z,18.200001
2019-04-21T09:04:52.302Z,19.700001
2019-04-21T09:05:56.921Z,18.200001
2019-04-21T09:07:56.999Z,19.5
2019-04-21T09:08:51.813Z,19.1
2019-04-21T09:09:57.051Z,18.200001
2019-04-21T09:10:52.688Z,16.799999
2019-04-21T09:11:53.683Z,18.700001
2019-04-21T09:12:51.577Z,16.6
2019-04-21T09:13:53.894Z,16.4
2019-04-21T09:14:54.043Z,17.5
2019-04-21T09:15:52.040Z,16.299999
2019-04-21T09:16:51.190Z,17.5
2019-04-21T09:17:48.223Z,16.6
2019-04-21T09:18:44.546Z,19.200001
2019-04-21T09:19:56.270Z,16.9
2019-04-21T09:20:56.908Z,17.5
2019-04-21T09:21:54.387Z,17.299999
2019-04-21T09:22:53.891Z,18.299999
2019-04-21T09:23:55.563Z,17.799999
2019-04-21T09:24:55.620Z,17.700001
2019-04-21T09:25:57.182Z,18.700001
2019-04-21T09:26:51.202Z,18.299999
2019-04-21T09:27:54.865Z,17.200001
2019-04-21T09:28:47.833Z,17.200001
2019-04-21T09:29:44.585Z,16.700001
2019-04-21T09:30:42.097Z,16.4
2019-04-21T09:31:41.606Z,17.5
2019-04-21T09:32:38.538Z,16.700001
2019-04-21T09:33:43.000Z,17.9
2019-04-21T09:34:42.303Z,17.1
2019-04-21T09:35:40.306Z,16.6
2019-04-21T09:36:44.603Z,17
2019-04-21T09:37:47.211Z,16
2019-04-21T09:38:41.973Z,17.700001
2019-04-21T09:39:43.397Z,16.5
2019-04-21T09:40:43.810Z,17.200001
2019-04-21T09:41:39.741Z,17.5
2019-04-21T09:42:47.262Z,16.1
2019-04-21T09:43:45.108Z,16.5
2019-04-21T09:44:42.463Z,17.200001
2019-04-21T09:45:40.478Z,16.4
2019-04-21T09:46:44.066Z,17.5
2019-04-21T09:47:46.412Z,17.799999
2019-04-21T09:48:49.492Z,16.200001
2019-04-21T09:49:40.157Z,17.200001
2019-04-21T09:50:41.031Z,19
2019-04-21T09:51:39.728Z,17.200001
2019-04-21T09:52:44.767Z,16.6
2019-04-21T09:53:42.127Z,17.5
2019-04-21T09:54:48.056Z,17
2019-04-21T09:55:46.286Z,18.5
2019-04-21T09:56:47.167Z,16.799999
2019-04-21T09:57:46.430Z,17.200001
2019-04-21T09:58:45.808Z,17.9
2019-04-21T09:59:43.565Z,17.299999
2019-04-21T10:00:49.794Z,15.2
2019-04-21T10:01:54.846Z,16.5
2019-04-21T10:02:50.256Z,15.3
2019-04-21T10:03:46.558Z,15.6
2019-04-21T10:04:40.839Z,18.1
2019-04-21T10:05:39.834Z,15.5
2019-04-21T10:06:40.069Z,16.9
2019-04-21T10:07:42.228Z,18.299999
2019-04-21T10:08:42.185Z,17.299999
2019-04-21T10:09:41.030Z,19.200001
2019-04-21T10:10:40.123Z,15.8
2019-04-21T10:11:41.468Z,16.4
2019-04-21T10:12:41.238Z,17.6
2019-04-21T10:13:40.350Z,13.4
2019-04-21T10:14:40.881Z,13.7
2019-04-21T10:15:40.399Z,14
2019-04-21T10:16:40.790Z,14.1
2019-04-21T10:17:41.647Z,16.200001
2019-04-21T10:18:41.499Z,14.7
2019-04-21T10:19:46.902Z,18.299999
2019-04-21T10:20:40.782Z,14.6
2019-04-21T10:21:42.095Z,14.4
2019-04-21T10:22:41.829Z,15.2
2019-04-21T10:23:41.554Z,14.3
2019-04-21T10:24:42.194Z,16.200001
2019-04-21T10:25:42.834Z,15.2
2019-04-21T10:26:41.286Z,15.8
2019-04-21T10:27:41.425Z,17
2019-04-21T10:28:41.399Z,17.9
2019-04-21T10:29:43.465Z,14
2019-04-21T10:30:42.571Z,15
2019-04-21T10:31:42.725Z,14.2
2019-04-21T10:32:42.846Z,15.9
2019-04-21T10:33:42.136Z,14.1
2019-04-21T10:34:41.693Z,14.8
2019-04-21T10:35:41.702Z,15.6
2019-04-21T10:36:42.909Z,14.8
2019-04-21T10:37:53.329Z,15
2019-04-21T10:38:47.800Z,14.8
2019-04-21T10:39:42.971Z,18.9
2019-04-21T10:40:43.352Z,15.9
2019-04-21T10:41:43.539Z,20.299999
2019-04-21T10:42:42.517Z,15.1
2019-04-21T10:43:42.991Z,15
2019-04-21T10:44:43.134Z,14.7
2019-04-21T10:45:43.211Z,15.2
2019-04-21T10:46:45.259Z,15.6
2019-04-21T10:47:44.734Z,12.4
2019-04-21T10:48:43.789Z,13.5
2019-04-21T10:49:42.940Z,14.6
2019-04-21T10:50:43.174Z,12.5
2019-04-21T10:51:43.362Z,12
2019-04-21T10:52:43.063Z,12.6
2019-04-21T10:53:43.207Z,14.9
2019-04-21T10:55:06.686Z,12.1
2019-04-21T10:55:58.831Z,12.8
2019-04-21T10:56:45.740Z,12.7
2019-04-21T10:57:44.659Z,13.4
2019-04-21T10:58:44.550Z,12.9
2019-04-21T10:59:47.816Z,13.7
2019-04-21T11:00:46.144Z,13.2
2019-04-21T11:01:45.284Z,13.5
2019-04-21T11:02:44.131Z,13.2
2019-04-21T11:03:44.735Z,12.8
2019-04-21T11:04:45.374Z,12.2
2019-04-21T11:05:45.495Z,12.4
2019-04-21T11:06:44.521Z,13
2019-04-21T11:07:55.040Z,13.1
2019-04-21T11:08:49.275Z,13.2
2019-04-21T11:09:46.337Z,13.1
2019-04-21T11:10:45.692Z,12.8
2019-04-21T11:11:47.855Z,13.1
2019-04-21T11:12:47.557Z,11.8
2019-04-21T11:13:46.451Z,11.9
2019-04-21T11:14:45.303Z,11.9
2019-04-21T11:15:45.467Z,12.6
2019-04-21T11:16:47.266Z,12.8
2019-04-21T11:17:47.244Z,11.6
2019-04-21T11:18:48.148Z,11.3
2019-04-21T11:19:46.851Z,11.6
2019-04-21T11:20:46.908Z,10.4
2019-04-21T11:21:47.081Z,11.3
2019-04-21T11:22:47.117Z,10.8
2019-04-21T11:23:47.996Z,9.9
2019-04-21T11:24:47.110Z,10.4
2019-04-21T11:25:46.258Z,10.6
2019-04-21T11:26:47.581Z,10.9
2019-04-21T11:27:47.292Z,11.4
2019-04-21T11:28:47.206Z,11.1
2019-04-21T11:29:47.481Z,11.1
2019-04-21T11:30:46.660Z,11.3
2019-04-21T11:31:47.287Z,10.8
2019-04-21T11:32:48.176Z,11.7
2019-04-21T11:33:47.415Z,11.4
2019-04-21T11:34:47.167Z,12
2019-04-21T11:35:46.592Z,11.7
2019-04-21T11:36:47.817Z,11.2
2019-04-21T11:37:48.332Z,11
2019-04-21T11:39:01.972Z,11.3
2019-04-21T11:39:54.963Z,10.9
2019-04-21T11:40:47.981Z,11.1
2019-04-21T11:41:47.819Z,11.9
2019-04-21T11:42:48.088Z,11
2019-04-21T11:43:48.738Z,10.9
2019-04-21T11:44:49.356Z,11.4
2019-04-21T11:45:48.631Z,11.4
2019-04-21T11:46:48.809Z,12.5
2019-04-21T11:47:50.106Z,12.3
2019-04-21T11:48:50.260Z,11.9
2019-04-21T11:49:49.391Z,11.7
2019-04-21T11:50:48.814Z,12.8
2019-04-21T11:51:49.010Z,22.1
2019-04-21T11:52:49.298Z,13.6
2019-04-21T11:53:49.506Z,13.5
2019-04-21T11:54:50.852Z,13.8
2019-04-21T11:55:51.750Z,13.2
2019-04-21T11:56:50.641Z,13.8
2019-04-21T11:57:51.187Z,13.8
2019-04-21T11:58:49.990Z,15.1
2019-04-21T11:59:48.746Z,14.3
2019-04-21T12:00:50.742Z,14.8
2019-04-21T12:01:49.971Z,16
2019-04-21T12:02:48.930Z,15.5
2019-04-21T12:03:49.601Z,26.1
2019-04-21T12:04:49.516Z,15.8
2019-04-21T12:05:49.214Z,15.1
2019-04-21T12:06:50.824Z,16
2019-04-21T12:07:51.306Z,16.700001
2019-04-21T12:08:52.862Z,17.200001
2019-04-21T12:09:51.271Z,17
2019-04-21T12:10:49.751Z,17
2019-04-21T12:11:49.711Z,17
2019-04-21T12:12:50.965Z,16.6
2019-04-21T12:13:52.049Z,16.9
2019-04-21T12:14:52.190Z,16.4
2019-04-21T12:15:52.698Z,17
2019-04-21T12:16:51.343Z,15.6
2019-04-21T12:22:06.727Z,17.700001
2019-04-21T12:23:00.377Z,17.299999
2019-04-21T12:23:59.066Z,17.200001
2019-04-21T12:24:59.037Z,16.6
2019-04-21T12:25:59.190Z,16.4
2019-04-21T12:27:00.030Z,16.4
2019-04-21T12:27:59.245Z,16.6
2019-04-21T12:28:59.663Z,16.200001
2019-04-21T12:29:59.695Z,16.299999
2019-04-21T12:31:00.147Z,15.7
2019-04-21T12:31:59.870Z,15.7
2019-04-21T12:33:00.101Z,16.299999
2019-04-21T12:34:00.312Z,15.9
2019-04-21T12:35:00.022Z,15.6
2019-04-21T12:36:00.169Z,16.700001
2019-04-21T12:37:01.163Z,16.200001
2019-04-21T12:38:00.617Z,17.200001
2019-04-21T12:39:03.249Z,16.4
2019-04-21T12:40:03.127Z,17.5
2019-04-21T12:41:02.373Z,17.700001
2019-04-21T12:42:00.878Z,16.200001
2019-04-21T12:43:01.089Z,16.4
2019-04-21T12:44:02.225Z,15.8
2019-04-21T12:45:03.453Z,16.6
2019-04-21T15:04:59.820Z,9.6
2019-04-21T15:06:01.238Z,8.6
2019-04-21T15:06:59.715Z,7.8
2019-04-21T15:08:03.657Z,6.5
2019-04-21T15:08:58.878Z,6.7
2019-04-21T15:10:09.671Z,6.4
2019-04-21T15:11:01.066Z,6.7
2019-04-21T15:12:00.304Z,6.5
2019-04-21T15:12:59.426Z,6.9
2019-04-21T15:13:59.830Z,7.5
2019-04-21T15:15:00.159Z,7.2
2019-04-21T15:16:00.571Z,7.4
2019-04-21T15:17:02.951Z,8.5
2019-04-21T15:18:01.886Z,7.6
2019-04-21T15:19:02.500Z,9.5
2019-04-21T15:20:05.570Z,7.2
2019-04-21T15:21:01.439Z,7.7
2019-04-21T15:22:00.671Z,8.7
2019-04-21T15:23:02.040Z,7
2019-04-21T15:24:02.439Z,6.6
2019-04-21T15:25:02.762Z,7.6
2019-04-21T15:26:01.991Z,6.4
2019-04-21T15:27:00.982Z,6.9
2019-04-21T15:28:01.166Z,6.6
2019-04-21T15:29:00.506Z,6.2
2019-04-21T15:30:00.685Z,7.3
2019-04-21T15:31:00.748Z,7
2019-04-21T15:32:01.429Z,6.8
2019-04-21T15:33:00.750Z,8.1
2019-04-21T15:34:01.277Z,7
2019-04-21T15:35:02.294Z,7.5
2019-04-21T15:36:02.915Z,7
2019-04-21T15:37:02.038Z,19.6
2019-04-21T15:38:02.032Z,8.3
2019-04-21T15:39:03.525Z,8
2019-04-21T15:40:14.726Z,8.9
2019-04-21T15:41:04.917Z,8.8
2019-04-21T15:42:02.775Z,6.8
2019-04-21T15:43:02.400Z,6.5
2019-04-21T15:44:04.062Z,6.9
2019-04-21T15:45:02.937Z,6.5
2019-04-21T15:46:02.578Z,7.1
2019-04-21T15:47:02.063Z,6.9
2019-04-21T15:48:04.170Z,6.8
2019-04-21T15:49:02.873Z,6.4
2019-04-21T15:50:07.166Z,6.3
2019-04-21T15:51:05.522Z,6.9
2019-04-21T15:52:04.180Z,6.1
2019-04-21T15:53:03.481Z,6.8
2019-04-21T15:54:02.611Z,6.5
2019-04-21T15:55:03.252Z,6.5
2019-04-21T15:56:04.480Z,6.7
2019-04-21T15:57:04.752Z,8
2019-04-21T15:58:04.722Z,7.1
2019-04-21T15:59:04.309Z,6.5
2019-04-21T16:00:02.854Z,7
2019-04-21T16:01:02.802Z,8.1
2019-04-21T16:02:02.754Z,7.7
2019-04-21T16:03:02.802Z,7.2
2019-04-21T16:04:04.288Z,6.3
2019-04-21T16:05:04.682Z,6.6
2019-04-21T16:06:03.304Z,5.7
2019-04-21T16:07:03.736Z,6.9
2019-04-21T16:08:03.548Z,5.8
2019-04-21T16:09:04.746Z,7.2
2019-04-21T16:10:06.950Z,6.3
2019-04-21T16:11:07.421Z,6.5
2019-04-21T16:12:04.542Z,10.4
2019-04-21T16:13:03.749Z,6.2
2019-04-21T16:14:03.817Z,6.2
2019-04-21T16:15:04.877Z,7.1
2019-04-21T16:16:06.246Z,6
2019-04-21T16:17:07.545Z,5.7
2019-04-21T16:18:05.474Z,5.5
2019-04-21T16:19:04.114Z,5.7
2019-04-21T16:20:04.213Z,7.3
2019-04-21T16:21:04.356Z,5.9
2019-04-21T16:22:04.259Z,6.6
2019-04-21T16:23:04.609Z,8.3
2019-04-21T16:24:04.851Z,5.8
2019-04-21T16:25:05.138Z,7.2
2019-04-21T16:26:04.621Z,7
2019-04-21T16:27:06.875Z,5.6
2019-04-21T16:28:05.716Z,6.3
2019-04-21T16:29:05.044Z,7.9
2019-04-21T16:30:05.948Z,6.6
2019-04-21T16:31:06.717Z,6.6
2019-04-21T16:32:06.923Z,5.8